createdAt,value
2018-05-04T00:02:11.976Z,7.90
2018-05-04T00:04:38.208Z,7.90
2018-05-04T00:07:04.454Z,7.90
2018-05-04T00:09:30.655Z,7.90
2018-05-04T00:11:56.884Z,7.90
2018-05-04T00:14:23.091Z,7.90
2018-05-04T00:16:50.051Z,7.90
2018-05-04T00:19:16.239Z,7.90
2018-05-04T00:21:42.463Z,7.90
2018-05-04T00:24:08.667Z,7.90
2018-05-04T00:26:34.907Z,7.80
2018-05-04T00:29:01.102Z,7.80
2018-05-04T00:31:27.298Z,7.70
2018-05-04T00:33:54.273Z,7.70
2018-05-04T00:36:20.487Z,7.70
2018-05-04T00:38:46.719Z,7.70
2018-05-04T00:41:12.919Z,7.60
2018-05-04T00:43:39.147Z,7.60
2018-05-04T00:46:06.110Z,7.50
2018-05-04T00:48:33.066Z,7.50
2018-05-04T00:51:00.011Z,7.50
2018-05-04T00:53:26.975Z,7.40
2018-05-04T00:55:53.195Z,7.50
2018-05-04T00:58:19.511Z,7.40
2018-05-04T01:00:46.461Z,7.30
2018-05-04T01:03:13.401Z,7.30
2018-05-04T01:05:41.265Z,7.20
2018-05-04T01:08:08.181Z,7.20
2018-05-04T01:10:35.692Z,7.20
2018-05-04T01:13:02.354Z,7.10
2018-05-04T01:15:29.047Z,7.10
2018-05-04T01:17:55.243Z,7.10
2018-05-04T01:20:21.462Z,7.20
2018-05-04T01:22:47.655Z,7.20
2018-05-04T01:25:13.875Z,7.10
2018-05-04T01:27:40.823Z,7.10
2018-05-04T01:30:07.798Z,7.00
2018-05-04T01:32:33.990Z,7.00
2018-05-04T01:35:00.950Z,7.00
2018-05-04T01:37:27.130Z,7.00
2018-05-04T01:39:53.356Z,6.90
2018-05-04T01:42:19.547Z,6.90
2018-05-04T01:44:45.762Z,6.80
2018-05-04T01:47:12.765Z,6.80
2018-05-04T01:49:38.979Z,6.80
2018-05-04T01:52:05.171Z,6.80
2018-05-04T01:54:31.369Z,6.70
2018-05-04T01:56:57.623Z,6.70
2018-05-04T01:59:23.826Z,6.60
2018-05-04T02:01:50.052Z,6.60
2018-05-04T02:04:16.280Z,6.50
2018-05-04T02:06:42.503Z,6.40
2018-05-04T02:09:08.715Z,6.40
2018-05-04T02:11:34.931Z,6.30
2018-05-04T02:14:01.135Z,6.20
2018-05-04T02:16:27.367Z,6.20
2018-05-04T02:18:53.563Z,6.20
2018-05-04T02:21:19.790Z,6.20
2018-05-04T02:23:45.993Z,6.20
2018-05-04T02:26:12.222Z,6.20
2018-05-04T02:28:38.423Z,6.20
2018-05-04T02:31:04.663Z,6.10
2018-05-04T02:33:30.858Z,6.10
2018-05-04T02:35:57.815Z,6.10
2018-05-04T02:38:24.011Z,6.10
2018-05-04T02:40:50.987Z,6.30
2018-05-04T02:43:17.187Z,6.30
2018-05-04T02:45:43.415Z,6.40
2018-05-04T02:48:10.616Z,6.50
2018-05-04T02:50:36.847Z,6.50
2018-05-04T02:53:03.047Z,6.50
2018-05-04T02:55:30.144Z,6.80
2018-05-04T02:57:56.315Z,6.80
2018-05-04T03:00:23.253Z,7.10
2018-05-04T03:02:50.215Z,7.10
2018-05-04T03:05:17.202Z,7.10
2018-05-04T03:07:43.387Z,7.10
2018-05-04T03:10:09.611Z,7.20
2018-05-04T03:12:36.544Z,7.20
2018-05-04T03:15:02.786Z,7.20
2018-05-04T03:17:29.723Z,7.30
2018-05-04T03:19:56.676Z,7.40
2018-05-04T03:22:23.611Z,7.40
2018-05-04T03:24:49.808Z,7.40
2018-05-04T03:27:16.043Z,7.60
2018-05-04T03:29:42.235Z,7.70
2018-05-04T03:32:08.451Z,7.70
2018-05-04T03:34:34.642Z,7.80
2018-05-04T03:37:00.857Z,7.80
2018-05-04T03:39:27.042Z,7.80
2018-05-04T03:41:53.292Z,7.80
2018-05-04T03:44:19.826Z,7.90
2018-05-04T03:46:46.900Z,8.00
2018-05-04T03:49:13.095Z,8.00
2018-05-04T03:51:39.319Z,8.00
2018-05-04T03:54:05.511Z,8.10
2018-05-04T03:56:32.451Z,7.90
2018-05-04T03:59:11.049Z,7.90
2018-05-04T04:01:49.593Z,7.90
2018-05-04T04:04:15.811Z,8.00
2018-05-04T04:06:42.035Z,8.00
2018-05-04T04:09:08.236Z,8.00
2018-05-04T04:11:34.471Z,8.10
2018-05-04T04:14:00.994Z,8.00
2018-05-04T04:16:27.195Z,8.00
2018-05-04T04:18:54.155Z,8.10
2018-05-04T04:21:20.362Z,8.10
2018-05-04T04:23:47.327Z,8.10
2018-05-04T04:26:13.527Z,8.00
2018-05-04T04:28:40.494Z,8.10
2018-05-04T04:31:07.430Z,8.20
2018-05-04T04:33:34.390Z,8.10
2018-05-04T04:36:00.610Z,8.10
2018-05-04T04:38:27.571Z,8.30
2018-05-04T04:40:53.766Z,8.30
2018-05-04T04:43:19.991Z,8.40
2018-05-04T04:45:46.191Z,8.50
2018-05-04T04:48:12.424Z,8.60
2018-05-04T04:50:38.618Z,8.60
2018-05-04T04:53:04.871Z,8.60
2018-05-04T04:55:31.070Z,8.60
2018-05-04T04:57:57.267Z,8.70
2018-05-04T05:00:23.498Z,8.70
2018-05-04T05:02:50.458Z,8.80
2018-05-04T05:05:17.803Z,9.00
2018-05-04T05:07:44.759Z,9.00
2018-05-04T05:10:11.722Z,9.00
2018-05-04T05:12:37.919Z,9.00
2018-05-04T05:15:04.142Z,9.00
2018-05-04T05:17:31.088Z,9.10
2018-05-04T05:19:57.318Z,9.10
2018-05-04T05:22:24.267Z,9.30
2018-05-04T05:24:50.504Z,9.30
2018-05-04T05:27:17.446Z,9.60
2018-05-04T05:29:44.903Z,9.70
2018-05-04T05:32:11.127Z,9.60
2018-05-04T05:34:37.356Z,9.80
2018-05-04T05:37:03.554Z,9.90
2018-05-04T05:39:29.778Z,10.10
2018-05-04T05:41:55.992Z,10.20
2018-05-04T05:44:22.227Z,10.30
2018-05-04T05:46:48.419Z,10.20
2018-05-04T05:49:15.383Z,10.70
2018-05-04T05:51:41.606Z,10.60
2018-05-04T05:54:07.805Z,10.70
2018-05-04T05:56:34.036Z,11.00
2018-05-04T05:59:00.997Z,11.50
2018-05-04T06:01:27.980Z,11.60
2018-05-04T06:03:54.214Z,11.50
2018-05-04T06:06:20.440Z,11.80
2018-05-04T06:08:46.638Z,11.80
2018-05-04T06:11:13.607Z,12.40
2018-05-04T06:13:39.803Z,12.40
2018-05-04T06:16:06.087Z,12.70
2018-05-04T06:18:32.299Z,12.80
2018-05-04T06:20:58.525Z,13.00
2018-05-04T06:23:24.717Z,13.20
2018-05-04T06:25:51.682Z,13.70
2018-05-04T06:28:17.870Z,13.60
2018-05-04T06:30:44.099Z,13.90
2018-05-04T06:33:10.303Z,14.00
2018-05-04T06:35:36.535Z,14.20
2018-05-04T06:38:02.734Z,14.40
2018-05-04T06:40:28.959Z,14.40
2018-05-04T06:42:55.159Z,14.40
2018-05-04T06:45:22.122Z,14.40
2018-05-04T06:47:49.067Z,14.30
2018-05-04T06:50:16.023Z,14.00
2018-05-04T06:52:42.223Z,13.90
2018-05-04T06:55:09.190Z,13.60
2018-05-04T06:57:36.426Z,13.60
2018-05-04T07:00:03.395Z,13.60
2018-05-04T07:02:29.619Z,13.50
2018-05-04T07:04:56.902Z,13.90
2018-05-04T07:07:23.089Z,13.90
2018-05-04T07:09:50.411Z,14.10
2018-05-04T07:12:16.611Z,14.10
2018-05-04T07:14:42.807Z,14.40
2018-05-04T07:17:09.775Z,14.70
2018-05-04T07:19:35.976Z,14.70
2018-05-04T07:22:02.977Z,14.80
2018-05-04T07:24:29.166Z,14.80
2018-05-04T07:26:56.150Z,15.40
2018-05-04T07:29:22.350Z,15.40
2018-05-04T07:31:48.571Z,16.20
2018-05-04T07:34:14.798Z,16.80
2018-05-04T07:36:41.762Z,18.30
2018-05-04T07:39:07.963Z,18.30
2018-05-04T07:41:34.943Z,20.30
2018-05-04T07:44:01.164Z,20.30
2018-05-04T07:46:27.379Z,20.70
2018-05-04T07:48:53.582Z,21.30
2018-05-04T07:51:19.824Z,22.40
2018-05-04T07:53:46.998Z,21.80
2018-05-04T07:56:13.271Z,21.80
2018-05-04T07:58:39.496Z,22.30
2018-05-04T08:01:05.742Z,23.20
2018-05-04T08:03:32.690Z,22.90
2018-05-04T08:05:58.889Z,22.80
2018-05-04T08:08:25.155Z,22.00
2018-05-04T08:10:51.377Z,21.60
2018-05-04T08:13:17.636Z,21.90
2018-05-04T08:15:44.607Z,23.10
2018-05-04T08:18:10.840Z,23.10
2018-05-04T08:20:37.039Z,23.20
2018-05-04T08:23:03.999Z,22.60
2018-05-04T08:25:30.214Z,22.60
2018-05-04T08:27:57.159Z,23.00
2018-05-04T08:30:24.128Z,23.30
2018-05-04T08:32:50.319Z,23.30
2018-05-04T08:35:16.649Z,23.60
2018-05-04T08:37:43.532Z,25.20
2018-05-04T08:40:09.756Z,25.10
2018-05-04T08:42:35.953Z,25.50
2018-05-04T08:45:02.184Z,26.10
2018-05-04T08:47:29.146Z,25.70
2018-05-04T08:49:56.078Z,24.80
2018-05-04T08:52:23.044Z,24.80
2018-05-04T08:54:49.233Z,24.80
2018-05-04T08:57:15.548Z,25.10
2018-05-04T08:59:42.427Z,24.60
2018-05-04T09:02:09.392Z,24.70
2018-05-04T09:04:36.336Z,25.30
2018-05-04T09:07:03.299Z,25.30
2018-05-04T09:09:29.510Z,25.30
2018-05-04T09:11:56.483Z,25.60
2018-05-04T09:14:22.676Z,25.60
2018-05-04T09:16:49.606Z,25.70
2018-05-04T09:19:15.813Z,25.70
2018-05-04T09:21:42.012Z,26.10
2018-05-04T09:24:08.227Z,26.70
2018-05-04T09:26:34.418Z,27.00
2018-05-04T09:29:00.632Z,25.80
2018-05-04T09:31:26.829Z,25.70
2018-05-04T09:33:53.073Z,26.00
2018-05-04T09:36:19.271Z,26.70
2018-05-04T09:38:45.486Z,27.50
2018-05-04T09:41:12.422Z,25.20
2018-05-04T09:43:39.387Z,26.50
2018-05-04T09:46:05.608Z,26.40
2018-05-04T09:48:31.831Z,27.60
2018-05-04T09:50:58.770Z,27.20
2018-05-04T09:53:25.735Z,26.10
2018-05-04T09:55:51.987Z,26.10
2018-05-04T09:58:18.527Z,25.50
2018-05-04T10:00:44.755Z,26.00
2018-05-04T10:03:10.956Z,26.30
2018-05-04T10:05:37.918Z,27.50
2018-05-04T10:08:04.120Z,27.40
2018-05-04T10:10:31.083Z,28.20
2018-05-04T10:12:57.275Z,28.10
2018-05-04T10:15:23.507Z,28.50
2018-05-04T10:17:49.711Z,28.80
2018-05-04T10:20:15.939Z,29.80
2018-05-04T10:22:42.148Z,29.80
2018-05-04T10:25:08.371Z,29.90
2018-05-04T10:27:34.575Z,30.80
2018-05-04T10:30:00.851Z,29.20
2018-05-04T10:32:27.079Z,28.60
2018-05-04T10:34:53.275Z,29.00
2018-05-04T10:37:19.498Z,29.20
2018-05-04T10:39:45.699Z,29.00
2018-05-04T10:42:13.412Z,27.90
2018-05-04T10:44:39.630Z,27.80
2018-05-04T10:47:05.866Z,28.80
2018-05-04T10:49:32.063Z,29.60
2018-05-04T10:51:59.035Z,29.10
2018-05-04T10:54:25.243Z,29.00
2018-05-04T10:56:52.226Z,30.70
2018-05-04T10:59:18.447Z,30.70
2018-05-04T11:01:44.673Z,31.20
2018-05-04T11:04:10.871Z,31.60
2018-05-04T11:06:37.842Z,31.50
2018-05-04T11:09:04.087Z,31.50
2018-05-04T11:11:30.341Z,32.00
2018-05-04T11:13:56.545Z,31.20
2018-05-04T11:16:22.743Z,31.60
2018-05-04T11:18:49.705Z,32.40
2018-05-04T11:21:15.907Z,32.40
2018-05-04T11:23:42.876Z,32.60
2018-05-04T11:26:09.167Z,32.50
2018-05-04T11:28:35.407Z,33.10
2018-05-04T11:31:01.603Z,32.00
2018-05-04T11:33:27.831Z,32.30
2018-05-04T11:35:54.046Z,32.80
2018-05-04T11:38:20.288Z,33.50
2018-05-04T11:40:46.513Z,34.30
2018-05-04T11:43:12.731Z,34.90
2018-05-04T11:45:38.939Z,34.10
2018-05-04T11:48:05.167Z,33.60
2018-05-04T11:50:31.390Z,33.20
2018-05-04T11:52:57.617Z,33.60
2018-05-04T11:55:23.822Z,33.50
2018-05-04T11:57:50.071Z,33.10
2018-05-04T12:00:17.026Z,32.90
2018-05-04T12:02:43.267Z,32.90
2018-05-04T12:05:09.459Z,32.80
2018-05-04T12:07:35.688Z,32.60
2018-05-04T12:10:02.671Z,33.80
2018-05-04T12:12:28.932Z,33.80
2018-05-04T12:14:55.143Z,33.70
2018-05-04T12:17:21.386Z,33.30
2018-05-04T12:19:47.583Z,33.40
2018-05-04T12:22:13.787Z,32.50
2018-05-04T12:24:40.759Z,32.50
2018-05-04T12:27:06.955Z,32.40
2018-05-04T12:29:33.174Z,32.00
2018-05-04T12:31:59.381Z,31.90
2018-05-04T12:34:25.644Z,32.60
2018-05-04T12:36:52.586Z,33.40
2018-05-04T12:39:18.812Z,33.40
2018-05-04T12:41:45.767Z,33.60
2018-05-04T12:44:12.741Z,33.80
2018-05-04T12:46:38.983Z,33.80
2018-05-04T12:49:05.219Z,34.00
2018-05-04T12:51:31.420Z,34.00
2018-05-04T12:53:57.618Z,34.10
2018-05-04T12:56:23.846Z,34.00
2018-05-04T12:58:50.099Z,33.70
2018-05-04T13:01:17.056Z,32.80
2018-05-04T13:03:43.251Z,32.80
2018-05-04T13:06:09.578Z,31.70
2018-05-04T13:08:35.788Z,30.40
2018-05-04T13:11:02.029Z,31.30
2018-05-04T13:13:28.255Z,31.40
2018-05-04T13:15:54.483Z,31.70
2018-05-04T13:18:20.679Z,32.00
2018-05-04T13:20:46.906Z,32.50
2018-05-04T13:23:13.103Z,33.00
2018-05-04T13:25:40.067Z,31.70
2018-05-04T13:28:06.267Z,31.70
2018-05-04T13:30:32.487Z,31.50
2018-05-04T13:32:58.689Z,31.70
2018-05-04T13:35:24.923Z,31.60
2018-05-04T13:37:51.127Z,31.80
2018-05-04T13:40:17.387Z,31.80
2018-05-04T13:42:43.610Z,31.90
2018-05-04T13:45:09.831Z,32.10
2018-05-04T13:47:36.039Z,31.90
2018-05-04T13:50:02.639Z,31.50
2018-05-04T13:52:29.584Z,29.50
2018-05-04T13:54:56.530Z,29.20
2018-05-04T13:57:22.755Z,29.20
2018-05-04T13:59:49.703Z,29.30
2018-05-04T14:02:16.686Z,29.60
2018-05-04T14:04:42.927Z,29.50
2018-05-04T14:07:09.180Z,29.70
2018-05-04T14:09:35.403Z,29.40
2018-05-04T14:12:01.634Z,28.70
2018-05-04T14:14:27.819Z,29.30
2018-05-04T14:16:54.041Z,29.10
2018-05-04T14:19:20.246Z,29.30
2018-05-04T14:21:46.442Z,29.60
2018-05-04T14:24:12.663Z,29.60
2018-05-04T14:26:38.859Z,29.00
2018-05-04T14:29:05.139Z,29.60
2018-05-04T14:31:31.335Z,29.50
2018-05-04T14:33:57.549Z,29.50
2018-05-04T14:36:23.746Z,29.00
2018-05-04T14:38:49.958Z,28.70
2018-05-04T14:41:16.159Z,28.70
2018-05-04T14:43:42.375Z,28.60
2018-05-04T14:46:08.576Z,28.20
2018-05-04T14:48:35.545Z,28.00
2018-05-04T14:51:01.735Z,28.00
2018-05-04T14:53:28.686Z,28.00
2018-05-04T14:55:55.028Z,28.00
2018-05-04T14:58:21.995Z,27.20
2018-05-04T15:00:48.194Z,27.20
2018-05-04T15:03:14.406Z,27.60
2018-05-04T15:05:40.598Z,27.50
2018-05-04T15:08:06.816Z,27.00
2018-05-04T15:10:33.047Z,26.10
2018-05-04T15:12:59.271Z,26.40
2018-05-04T15:15:25.474Z,26.70
2018-05-04T15:17:52.775Z,26.90
2018-05-04T15:20:18.975Z,26.90
2018-05-04T15:22:45.203Z,26.70
2018-05-04T15:25:11.408Z,26.20
2018-05-04T15:27:37.646Z,25.90
2018-05-04T15:30:04.603Z,25.50
2018-05-04T15:32:31.576Z,25.00
2018-05-04T15:34:58.115Z,24.90
2018-05-04T15:37:24.339Z,25.20
2018-05-04T15:39:50.565Z,25.40
2018-05-04T15:42:16.783Z,25.10
2018-05-04T15:44:42.982Z,24.90
2018-05-04T15:47:09.211Z,24.80
2018-05-04T15:49:35.415Z,24.80
2018-05-04T15:52:03.563Z,24.60
2018-05-04T15:54:29.767Z,24.40
2018-05-04T15:56:55.999Z,24.30
2018-05-04T15:59:22.199Z,24.00
2018-05-04T16:01:48.431Z,24.00
2018-05-04T16:04:14.636Z,23.70
2018-05-04T16:06:40.886Z,23.40
2018-05-04T16:09:07.088Z,23.10
2018-05-04T16:11:33.347Z,22.80
2018-05-04T16:14:00.290Z,22.40
2018-05-04T16:16:26.531Z,22.40
2018-05-04T16:18:53.462Z,22.40
2018-05-04T16:21:19.674Z,22.40
2018-05-04T16:23:45.874Z,22.20
2018-05-04T16:26:12.086Z,21.70
2018-05-04T16:28:38.309Z,21.40
2018-05-04T16:31:04.571Z,21.30
2018-05-04T16:33:30.783Z,21.30
2018-05-04T16:35:57.248Z,21.00
2018-05-04T16:38:23.448Z,20.60
2018-05-04T16:40:49.639Z,20.10
2018-05-04T16:43:16.603Z,19.10
2018-05-04T16:45:42.887Z,19.00
2018-05-04T16:48:15.234Z,18.70
2018-05-04T16:50:41.455Z,18.50
2018-05-04T16:53:07.696Z,18.30
2018-05-04T16:55:33.981Z,18.10
2018-05-04T16:58:00.207Z,17.90
2018-05-04T17:00:26.462Z,17.70
2018-05-04T17:02:52.711Z,17.50
2018-05-04T17:05:18.922Z,17.40
2018-05-04T17:07:45.170Z,17.20
2018-05-04T17:10:11.375Z,17.10
2018-05-04T17:12:37.623Z,17.00
2018-05-04T17:15:03.851Z,17.00
2018-05-04T17:17:30.139Z,16.90
2018-05-04T17:19:57.099Z,16.60
2018-05-04T17:22:24.088Z,16.50
2018-05-04T17:24:50.311Z,16.50
2018-05-04T17:27:16.523Z,16.40
2018-05-04T17:29:42.783Z,16.30
2018-05-04T17:32:08.998Z,16.20
2018-05-04T17:34:35.223Z,16.10
2018-05-04T17:37:01.462Z,16.00
2018-05-04T17:39:27.683Z,15.80
2018-05-04T17:41:53.874Z,15.80
2018-05-04T17:44:20.847Z,15.50
2018-05-04T17:46:47.111Z,15.50
2018-05-04T17:49:13.377Z,15.50
2018-05-04T17:51:40.315Z,15.20
2018-05-04T17:54:06.540Z,15.20
2018-05-04T17:56:32.743Z,15.20
2018-05-04T17:58:58.972Z,15.00
2018-05-04T18:01:25.190Z,15.00
2018-05-04T18:03:51.412Z,14.80
2018-05-04T18:06:17.607Z,14.70
2018-05-04T18:08:44.096Z,14.60
2018-05-04T18:11:10.283Z,14.50
2018-05-04T18:13:36.481Z,14.40
2018-05-04T18:16:03.448Z,14.20
2018-05-04T18:18:29.648Z,14.10
2018-05-04T18:20:57.346Z,13.90
2018-05-04T18:23:23.575Z,13.90
2018-05-04T18:25:49.762Z,13.80
2018-05-04T18:28:15.953Z,13.70
2018-05-04T18:30:42.174Z,13.60
2018-05-04T18:33:08.391Z,13.40
2018-05-04T18:35:34.631Z,13.30
2018-05-04T18:38:00.864Z,13.20
2018-05-04T18:40:27.142Z,13.10
2018-05-04T18:42:54.084Z,12.90
2018-05-04T18:45:20.319Z,12.90
2018-05-04T18:47:47.261Z,12.60
2018-05-04T18:50:13.487Z,12.60
2018-05-04T18:52:39.720Z,12.50
2018-05-04T18:55:05.947Z,12.50
2018-05-04T18:57:32.156Z,12.40
2018-05-04T18:59:58.400Z,12.30
2018-05-04T19:02:30.751Z,12.20
2018-05-04T19:04:56.983Z,12.10
2018-05-04T19:07:23.185Z,12.10
2018-05-04T19:09:49.412Z,12.00
2018-05-04T19:12:15.611Z,11.90
2018-05-04T19:14:42.635Z,11.80
2018-05-04T19:17:08.795Z,11.80
2018-05-04T19:19:35.756Z,11.70
2018-05-04T19:22:01.950Z,11.60
2018-05-04T19:24:28.210Z,11.60
2018-05-04T19:26:54.443Z,11.60
2018-05-04T19:29:20.643Z,11.50
2018-05-04T19:31:47.628Z,11.40
2018-05-04T19:34:13.855Z,11.40
2018-05-04T19:36:40.070Z,11.40
2018-05-04T19:39:06.302Z,11.30
2018-05-04T19:41:32.503Z,11.20
2018-05-04T19:43:59.440Z,11.20
2018-05-04T19:46:25.672Z,11.10
2018-05-04T19:48:51.858Z,11.10
2018-05-04T19:51:18.142Z,11.00
2018-05-04T19:53:45.138Z,10.90
2018-05-04T19:56:11.414Z,10.90
2018-05-04T19:58:37.669Z,10.90
2018-05-04T20:01:03.857Z,10.90
2018-05-04T20:03:30.058Z,10.80
2018-05-04T20:05:56.283Z,10.80
2018-05-04T20:08:22.482Z,10.70
2018-05-04T20:10:48.709Z,10.70
2018-05-04T20:13:15.170Z,10.60
2018-05-04T20:15:48.286Z,10.60
2018-05-04T20:18:14.487Z,10.50
2018-05-04T20:20:40.712Z,10.50
2018-05-04T20:23:06.911Z,10.50
2018-05-04T20:25:33.928Z,10.40
2018-05-04T20:28:00.103Z,10.40
2018-05-04T20:30:26.364Z,10.40
2018-05-04T20:32:52.562Z,10.30
2018-05-04T20:35:18.815Z,10.30
2018-05-04T20:37:45.098Z,10.20
2018-05-04T20:40:11.279Z,10.20
2018-05-04T20:42:37.467Z,10.10
2018-05-04T20:45:04.510Z,10.10
2018-05-04T20:47:31.442Z,10.10
2018-05-04T20:49:57.700Z,10.10
2018-05-04T20:52:23.903Z,10.10
2018-05-04T20:54:50.839Z,10.10
2018-05-04T20:57:17.060Z,10.00
2018-05-04T20:59:43.247Z,10.00
2018-05-04T21:02:09.468Z,10.00
2018-05-04T21:04:35.675Z,9.90
2018-05-04T21:07:02.632Z,9.90
2018-05-04T21:09:28.850Z,9.90
2018-05-04T21:11:55.806Z,9.80
2018-05-04T21:14:22.022Z,9.80
2018-05-04T21:16:48.979Z,9.70
2018-05-04T21:19:15.162Z,9.70
2018-05-04T21:21:41.448Z,9.70
2018-05-04T21:24:07.639Z,9.70
2018-05-04T21:26:33.860Z,9.70
2018-05-04T21:29:00.080Z,9.60
2018-05-04T21:31:26.298Z,9.60
2018-05-04T21:33:52.498Z,9.50
2018-05-04T21:36:18.778Z,9.50
2018-05-04T21:38:44.975Z,9.50
2018-05-04T21:41:11.192Z,9.50
2018-05-04T21:43:37.387Z,9.40
2018-05-04T21:46:04.343Z,9.30
2018-05-04T21:48:30.575Z,9.30
2018-05-04T21:50:56.834Z,9.30
2018-05-04T21:53:23.018Z,9.30
2018-05-04T21:55:49.992Z,9.20
2018-05-04T21:58:16.179Z,9.20
2018-05-04T22:00:43.136Z,9.20
2018-05-04T22:03:10.071Z,9.20
2018-05-04T22:05:36.302Z,9.20
2018-05-04T22:08:02.492Z,9.20
2018-05-04T22:10:28.710Z,9.20
2018-05-04T22:12:54.938Z,9.20
2018-05-04T22:15:21.150Z,9.20
2018-05-04T22:17:47.355Z,9.20
2018-05-04T22:20:14.316Z,9.20
2018-05-04T22:22:41.242Z,9.20
2018-05-04T22:25:08.206Z,9.10
2018-05-04T22:27:35.138Z,9.10
2018-05-04T22:30:02.124Z,9.10
2018-05-04T22:32:35.288Z,9.10
2018-05-04T22:35:02.263Z,9.00
2018-05-04T22:37:28.455Z,9.00
2018-05-04T22:39:55.492Z,8.90
2018-05-04T22:42:21.630Z,8.90
2018-05-04T22:44:48.590Z,8.80
2018-05-04T22:47:14.787Z,8.80
2018-05-04T22:49:41.044Z,8.80
2018-05-04T22:52:07.999Z,8.70
2018-05-04T22:54:34.211Z,8.60
2018-05-04T22:57:01.171Z,8.60
2018-05-04T22:59:27.368Z,8.60
2018-05-04T23:01:54.574Z,8.60
2018-05-04T23:04:20.779Z,8.50
2018-05-04T23:06:47.017Z,8.60
2018-05-04T23:09:13.235Z,8.50
2018-05-04T23:11:39.533Z,8.50
2018-05-04T23:14:05.754Z,8.50
2018-05-04T23:16:31.979Z,8.50
2018-05-04T23:18:58.183Z,8.50
2018-05-04T23:21:24.407Z,8.40
2018-05-04T23:23:50.608Z,8.40
2018-05-04T23:26:17.574Z,8.30
2018-05-04T23:28:43.779Z,8.30
2018-05-04T23:31:10.747Z,8.20
2018-05-04T23:33:36.965Z,8.20
2018-05-04T23:36:03.182Z,8.20
2018-05-04T23:38:30.126Z,8.20
2018-05-04T23:40:57.093Z,8.10
2018-05-04T23:43:23.300Z,8.10
2018-05-04T23:45:50.266Z,8.10
2018-05-04T23:48:16.491Z,8.10
2018-05-04T23:50:42.723Z,8.10
2018-05-04T23:53:08.922Z,8.10
2018-05-04T23:55:35.151Z,8.00
2018-05-04T23:58:01.367Z,8.00
